sensor_id;sensor_type;location;lat;lon;timestamp;pressure;altitude;pressure_sealevel;temperature;humidity
47374;BME280;33123;50.118;10.272;2023-04-06T00:00:26;97953.63;;;2.06;51.96
47374;BME280;33123;50.118;10.272;2023-04-06T00:02:52;97946.81;;;2.05;52.87
47374;BME280;33123;50.118;10.272;2023-04-06T00:05:21;97952.41;;;2.02;53.56
47374;BME280;33123;50.118;10.272;2023-04-06T00:07:49;97948.19;;;2.01;52.94
47374;BME280;33123;50.118;10.272;2023-04-06T00:10:16;97942.19;;;2.01;52.80
47374;BME280;33123;50.118;10.272;2023-04-06T00:12:43;97944.78;;;2.01;53.48
47374;BME280;33123;50.118;10.272;2023-04-06T00:15:10;97941.13;;;1.95;52.96
47374;BME280;33123;50.118;10.272;2023-04-06T00:17:37;97892.03;;;1.64;53.65
47374;BME280;33123;50.118;10.272;2023-04-06T00:20:05;97947.69;;;1.91;53.51
47374;BME280;33123;50.118;10.272;2023-04-06T00:22:32;97929.44;;;1.84;53.91
47374;BME280;33123;50.118;10.272;2023-04-06T00:25:00;97943.78;;;1.80;53.80
47374;BME280;33123;50.118;10.272;2023-04-06T00:27:27;97937.16;;;1.78;54.81
47374;BME280;33123;50.118;10.272;2023-04-06T00:29:53;97936.50;;;1.76;54.07
47374;BME280;33123;50.118;10.272;2023-04-06T00:32:20;97937.88;;;1.72;54.65
47374;BME280;33123;50.118;10.272;2023-04-06T00:34:47;97927.06;;;1.68;54.47
47374;BME280;33123;50.118;10.272;2023-04-06T00:37:13;97930.00;;;1.65;54.46
47374;BME280;33123;50.118;10.272;2023-04-06T00:39:40;97931.19;;;1.63;54.78
47374;BME280;33123;50.118;10.272;2023-04-06T00:42:11;97929.59;;;1.62;54.67
47374;BME280;33123;50.118;10.272;2023-04-06T00:44:38;97931.53;;;1.59;54.67
47374;BME280;33123;50.118;10.272;2023-04-06T00:47:05;97923.50;;;1.54;54.87
47374;BME280;33123;50.118;10.272;2023-04-06T00:49:32;97928.06;;;1.52;55.59
47374;BME280;33123;50.118;10.272;2023-04-06T00:51:59;97928.25;;;1.51;54.70
47374;BME280;33123;50.118;10.272;2023-04-06T00:54:26;97923.41;;;1.48;54.96
47374;BME280;33123;50.118;10.272;2023-04-06T00:56:53;97919.41;;;1.45;54.86
47374;BME280;33123;50.118;10.272;2023-04-06T00:59:21;97911.63;;;1.45;54.71
47374;BME280;33123;50.118;10.272;2023-04-06T01:01:48;97913.41;;;1.45;54.62
47374;BME280;33123;50.118;10.272;2023-04-06T01:04:15;97913.41;;;1.45;54.39
47374;BME280;33123;50.118;10.272;2023-04-06T01:06:41;97916.00;;;1.45;55.21
47374;BME280;33123;50.118;10.272;2023-04-06T01:09:08;97912.56;;;1.44;55.25
47374;BME280;33123;50.118;10.272;2023-04-06T01:11:35;97912.56;;;1.44;55.60
47374;BME280;33123;50.118;10.272;2023-04-06T01:14:03;97910.81;;;1.45;56.31
47374;BME280;33123;50.118;10.272;2023-04-06T01:16:31;97915.19;;;1.44;55.77
47374;BME280;33123;50.118;10.272;2023-04-06T01:18:58;97906.78;;;1.42;55.39
47374;BME280;33123;50.118;10.272;2023-04-06T01:21:24;97909.56;;;1.41;55.75
47374;BME280;33123;50.118;10.272;2023-04-06T01:23:53;97911.34;;;1.40;55.56
47374;BME280;33123;50.118;10.272;2023-04-06T01:26:19;97907.16;;;1.39;55.81
47374;BME280;33123;50.118;10.272;2023-04-06T01:28:46;97908.75;;;1.40;55.50
47374;BME280;33123;50.118;10.272;2023-04-06T01:31:13;97906.97;;;1.41;56.03
47374;BME280;33123;50.118;10.272;2023-04-06T01:33:39;97902.75;;;1.40;55.76
47374;BME280;33123;50.118;10.272;2023-04-06T01:36:07;97908.91;;;1.39;55.57
47374;BME280;33123;50.118;10.272;2023-04-06T01:38:33;97906.69;;;1.36;55.15
47374;BME280;33123;50.118;10.272;2023-04-06T01:41:02;97906.88;;;1.34;55.84
47374;BME280;33123;50.118;10.272;2023-04-06T01:43:30;97902.03;;;1.31;55.53
47374;BME280;33123;50.118;10.272;2023-04-06T01:45:57;97910.03;;;1.29;55.39
47374;BME280;33123;50.118;10.272;2023-04-06T01:48:24;97905.19;;;1.26;56.81
47374;BME280;33123;50.118;10.272;2023-04-06T01:50:50;97908.97;;;1.24;56.67
47374;BME280;33123;50.118;10.272;2023-04-06T01:53:17;97894.38;;;1.23;56.42
47374;BME280;33123;50.118;10.272;2023-04-06T01:55:44;97903.13;;;1.22;55.97
47374;BME280;33123;50.118;10.272;2023-04-06T01:58:12;97898.31;;;1.19;56.70
47374;BME280;33123;50.118;10.272;2023-04-06T02:00:39;97903.25;;;1.14;55.51
47374;BME280;33123;50.118;10.272;2023-04-06T02:03:06;97891.06;;;1.14;56.36
47374;BME280;33123;50.118;10.272;2023-04-06T02:05:33;97898.03;;;1.14;55.21
47374;BME280;33123;50.118;10.272;2023-04-06T02:08:03;97888.66;;;1.13;54.77
47374;BME280;33123;50.118;10.272;2023-04-06T02:10:30;97887.06;;;1.12;55.83
47374;BME280;33123;50.118;10.272;2023-04-06T02:12:57;97889.00;;;1.10;55.25
47374;BME280;33123;50.118;10.272;2023-04-06T02:15:26;97896.19;;;1.08;55.62
47374;BME280;33123;50.118;10.272;2023-04-06T02:17:53;97891.34;;;1.04;55.88
47374;BME280;33123;50.118;10.272;2023-04-06T02:20:20;97890.91;;;1.01;55.88
47374;BME280;33123;50.118;10.272;2023-04-06T02:22:47;97888.47;;;0.99;55.58
47374;BME280;33123;50.118;10.272;2023-04-06T02:25:13;97887.66;;;0.99;56.80
47374;BME280;33123;50.118;10.272;2023-04-06T02:27:40;97879.47;;;0.95;56.69
47374;BME280;33123;50.118;10.272;2023-04-06T02:30:08;97887.84;;;0.97;57.01
47374;BME280;33123;50.118;10.272;2023-04-06T02:32:36;97879.28;;;0.97;56.98
47374;BME280;33123;50.118;10.272;2023-04-06T02:35:03;97878.47;;;0.96;56.80
47374;BME280;33123;50.118;10.272;2023-04-06T02:37:30;97879.28;;;0.97;57.03
47374;BME280;33123;50.118;10.272;2023-04-06T02:39:57;97886.88;;;0.98;57.41
47374;BME280;33123;50.118;10.272;2023-04-06T02:42:23;97878.47;;;0.96;56.86
47374;BME280;33123;50.118;10.272;2023-04-06T02:44:50;97884.91;;;1.00;56.33
47374;BME280;33123;50.118;10.272;2023-04-06T02:47:17;97884.72;;;1.02;56.55
47374;BME280;33123;50.118;10.272;2023-04-06T02:49:45;97887.94;;;1.04;57.12
47374;BME280;33123;50.118;10.272;2023-04-06T02:52:11;97885.19;;;1.05;57.25
47374;BME280;33123;50.118;10.272;2023-04-06T02:54:38;97882.59;;;1.05;56.20
47374;BME280;33123;50.118;10.272;2023-04-06T02:57:05;97886.78;;;1.07;56.03
47374;BME280;33123;50.118;10.272;2023-04-06T02:59:32;97886.94;;;1.05;56.29
47374;BME280;33123;50.118;10.272;2023-04-06T03:01:58;97882.94;;;1.02;55.65
47374;BME280;33123;50.118;10.272;2023-04-06T03:04:25;97888.47;;;0.99;55.79
47374;BME280;33123;50.118;10.272;2023-04-06T03:06:53;97878.47;;;0.96;55.61
47374;BME280;33123;50.118;10.272;2023-04-06T03:09:20;97878.47;;;0.96;56.00
47374;BME280;33123;50.118;10.272;2023-04-06T03:11:47;97878.66;;;0.95;55.73
47374;BME280;33123;50.118;10.272;2023-04-06T03:14:14;97875.00;;;0.89;56.20
47374;BME280;33123;50.118;10.272;2023-04-06T03:16:42;97869.16;;;0.87;56.77
47374;BME280;33123;50.118;10.272;2023-04-06T03:19:09;97878.28;;;0.83;56.46
47374;BME280;33123;50.118;10.272;2023-04-06T03:21:36;97878.66;;;0.80;56.94
47374;BME280;33123;50.118;10.272;2023-04-06T03:24:05;97886.44;;;0.80;56.55
47374;BME280;33123;50.118;10.272;2023-04-06T03:26:32;97876.25;;;0.78;56.99
47374;BME280;33123;50.118;10.272;2023-04-06T03:28:58;97872.66;;;0.79;57.51
47374;BME280;33123;50.118;10.272;2023-04-06T03:31:25;97876.06;;;0.80;56.00
47374;BME280;33123;50.118;10.272;2023-04-06T03:33:52;97877.47;;;0.83;55.93
47374;BME280;33123;50.118;10.272;2023-04-06T03:36:19;97877.47;;;0.83;55.08
47374;BME280;33123;50.118;10.272;2023-04-06T03:38:45;97887.03;;;0.82;55.52
47374;BME280;33123;50.118;10.272;2023-04-06T03:41:14;97880.63;;;0.78;54.92
47374;BME280;33123;50.118;10.272;2023-04-06T03:43:41;97878.03;;;0.78;56.10
47374;BME280;33123;50.118;10.272;2023-04-06T03:46:08;97881.59;;;0.77;56.22
47374;BME280;33123;50.118;10.272;2023-04-06T03:48:35;97882.38;;;0.77;56.27
47374;BME280;33123;50.118;10.272;2023-04-06T03:51:01;97888.75;;;0.75;54.86
47374;BME280;33123;50.118;10.272;2023-04-06T03:53:28;97889.56;;;0.75;54.81
47374;BME280;33123;50.118;10.272;2023-04-06T03:55:55;97886.06;;;0.83;55.11
47374;BME280;33123;50.118;10.272;2023-04-06T03:58:23;97887.97;;;0.89;54.84
47374;BME280;33123;50.118;10.272;2023-04-06T04:00:50;97888.38;;;0.93;55.39
47374;BME280;33123;50.118;10.272;2023-04-06T04:03:16;97886.06;;;0.98;55.33
47374;BME280;33123;50.118;10.272;2023-04-06T04:05:43;97883.72;;;1.03;55.03
47374;BME280;33123;50.118;10.272;2023-04-06T04:08:10;97892.59;;;1.09;55.79
47374;BME280;33123;50.118;10.272;2023-04-06T04:10:36;97889.00;;;1.10;55.33
47374;BME280;33123;50.118;10.272;2023-04-06T04:13:03;97893.19;;;1.11;56.19
47374;BME280;33123;50.118;10.272;2023-04-06T04:15:32;97891.16;;;1.06;55.51
47374;BME280;33123;50.118;10.272;2023-04-06T04:17:58;97894.91;;;1.03;55.53
47374;BME280;33123;50.118;10.272;2023-04-06T04:20:25;97896.72;;;1.03;55.67
47374;BME280;33123;50.118;10.272;2023-04-06T04:22:53;97902.44;;;0.98;55.53
47374;BME280;33123;50.118;10.272;2023-04-06T04:25:20;97904.84;;;1.00;55.63
47374;BME280;33123;50.118;10.272;2023-04-06T04:27:46;97902.53;;;0.90;56.21
47374;BME280;33123;50.118;10.272;2023-04-06T04:30:13;97906.75;;;0.91;56.13
47374;BME280;33123;50.118;10.272;2023-04-06T04:32:42;97913.19;;;0.95;55.61
47374;BME280;33123;50.118;10.272;2023-04-06T04:35:09;97911.13;;;0.91;54.84
47374;BME280;33123;50.118;10.272;2023-04-06T04:37:36;97909.94;;;0.93;55.50
47374;BME280;33123;50.118;10.272;2023-04-06T04:40:04;97903.34;;;0.91;54.77
47374;BME280;33123;50.118;10.272;2023-04-06T04:42:30;97906.03;;;0.97;55.40
47374;BME280;33123;50.118;10.272;2023-04-06T04:44:57;97906.81;;;0.98;55.43
47374;BME280;33123;50.118;10.272;2023-04-06T04:47:24;97910.22;;;0.98;56.20
47374;BME280;33123;50.118;10.272;2023-04-06T04:49:52;97904.22;;;0.98;55.92
47374;BME280;33123;50.118;10.272;2023-04-06T04:52:19;97907.81;;;0.97;55.62
47374;BME280;33123;50.118;10.272;2023-04-06T04:54:45;97909.16;;;0.93;55.90
47374;BME280;33123;50.118;10.272;2023-04-06T04:57:13;97908.97;;;0.94;56.22
47374;BME280;33123;50.118;10.272;2023-04-06T04:59:39;97918.09;;;0.90;56.21
47374;BME280;33123;50.118;10.272;2023-04-06T05:02:06;97917.13;;;0.91;56.64
47374;BME280;33123;50.118;10.272;2023-04-06T05:04:33;97923.91;;;0.92;55.76
47374;BME280;33123;50.118;10.272;2023-04-06T05:07:05;97918.72;;;0.92;56.36
47374;BME280;33123;50.118;10.272;2023-04-06T05:09:32;97876.56;;;0.61;55.69
47374;BME280;33123;50.118;10.272;2023-04-06T05:11:59;97926.31;;;0.94;56.83
47374;BME280;33123;50.118;10.272;2023-04-06T05:14:26;97922.78;;;0.95;56.18
47374;BME280;33123;50.118;10.272;2023-04-06T05:16:53;97930.38;;;0.96;56.46
47374;BME280;33123;50.118;10.272;2023-04-06T05:19:20;97931.78;;;0.99;57.36
47374;BME280;33123;50.118;10.272;2023-04-06T05:21:47;97932.25;;;1.02;57.58
47374;BME280;33123;50.118;10.272;2023-04-06T05:24:15;97927.41;;;1.14;57.84
47374;BME280;33123;50.118;10.272;2023-04-06T05:26:42;97933.53;;;1.43;57.98
47374;BME280;33123;50.118;10.272;2023-04-06T05:29:10;97927.97;;;1.82;57.88
47374;BME280;33123;50.118;10.272;2023-04-06T05:31:37;97935.84;;;2.31;57.69
47374;BME280;33123;50.118;10.272;2023-04-06T05:34:03;97934.06;;;2.88;56.31
47374;BME280;33123;50.118;10.272;2023-04-06T05:36:31;97933.94;;;3.44;53.93
47374;BME280;33123;50.118;10.272;2023-04-06T05:38:58;97930.53;;;3.98;52.56
47374;BME280;33123;50.118;10.272;2023-04-06T05:41:26;97936.81;;;4.50;51.02
47374;BME280;33123;50.118;10.272;2023-04-06T05:43:53;97937.16;;;5.00;49.84
47374;BME280;33123;50.118;10.272;2023-04-06T05:46:20;97920.16;;;5.36;47.66
47374;BME280;33123;50.118;10.272;2023-04-06T05:48:47;97930.00;;;5.92;45.73
47374;BME280;33123;50.118;10.272;2023-04-06T05:51:13;97930.63;;;6.50;46.37
47374;BME280;33123;50.118;10.272;2023-04-06T05:53:40;97931.00;;;7.15;44.61
47374;BME280;33123;50.118;10.272;2023-04-06T05:56:07;97832.19;;;7.16;42.97
47374;BME280;33123;50.118;10.272;2023-04-06T05:58:35;97930.66;;;8.39;41.79
47374;BME280;33123;50.118;10.272;2023-04-06T06:01:02;97929.66;;;8.98;41.30
47374;BME280;33123;50.118;10.272;2023-04-06T06:03:30;97923.97;;;9.53;38.78
47374;BME280;33123;50.118;10.272;2023-04-06T06:06:00;97926.13;;;10.14;38.48
47374;BME280;33123;50.118;10.272;2023-04-06T06:08:27;97929.69;;;10.70;37.02
47374;BME280;33123;50.118;10.272;2023-04-06T06:10:54;97930.41;;;11.21;35.99
47374;BME280;33123;50.118;10.272;2023-04-06T06:13:22;97938.31;;;11.81;35.99
47374;BME280;33123;50.118;10.272;2023-04-06T06:15:51;97928.84;;;12.39;35.09
47374;BME280;33123;50.118;10.272;2023-04-06T06:18:17;97932.44;;;12.98;34.13
47374;BME280;33123;50.118;10.272;2023-04-06T06:20:44;97923.94;;;13.38;33.04
47374;BME280;33123;50.118;10.272;2023-04-06T06:23:11;97899.13;;;13.54;32.14
47374;BME280;33123;50.118;10.272;2023-04-06T06:25:38;97944.34;;;14.10;32.46
47374;BME280;33123;50.118;10.272;2023-04-06T06:28:05;97938.53;;;14.44;32.19
47374;BME280;33123;50.118;10.272;2023-04-06T06:30:32;97943.06;;;14.84;31.14
47374;BME280;33123;50.118;10.272;2023-04-06T06:33:00;97952.00;;;15.29;30.14
47374;BME280;33123;50.118;10.272;2023-04-06T06:35:27;97941.56;;;15.63;29.03
47374;BME280;33123;50.118;10.272;2023-04-06T06:37:54;97945.38;;;15.96;28.45
47374;BME280;33123;50.118;10.272;2023-04-06T06:40:20;97943.56;;;16.31;28.05
47374;BME280;33123;50.118;10.272;2023-04-06T06:42:49;97952.41;;;16.60;27.43
47374;BME280;33123;50.118;10.272;2023-04-06T06:45:16;97951.88;;;16.93;27.23
47374;BME280;33123;50.118;10.272;2023-04-06T06:47:43;97951.16;;;17.16;26.37
47374;BME280;33123;50.118;10.272;2023-04-06T06:50:12;97945.13;;;17.29;26.46
47374;BME280;33123;50.118;10.272;2023-04-06T06:52:39;97950.06;;;17.41;26.09
47374;BME280;33123;50.118;10.272;2023-04-06T06:55:07;97937.03;;;17.39;25.95
47374;BME280;33123;50.118;10.272;2023-04-06T06:57:34;97953.91;;;17.54;26.44
47374;BME280;33123;50.118;10.272;2023-04-06T07:00:01;97959.47;;;17.57;26.21
47374;BME280;33123;50.118;10.272;2023-04-06T07:02:28;97955.44;;;17.60;26.00
47374;BME280;33123;50.118;10.272;2023-04-06T07:04:55;97954.44;;;17.56;26.75
47374;BME280;33123;50.118;10.272;2023-04-06T07:07:23;97951.03;;;17.50;26.53
47374;BME280;33123;50.118;10.272;2023-04-06T07:09:51;97949.16;;;17.51;26.32
47374;BME280;33123;50.118;10.272;2023-04-06T07:12:21;97949.16;;;17.51;26.57
47374;BME280;33123;50.118;10.272;2023-04-06T07:14:50;97948.03;;;17.57;27.08
47374;BME280;33123;50.118;10.272;2023-04-06T07:17:17;97950.84;;;17.65;25.06
47374;BME280;33123;50.118;10.272;2023-04-06T07:19:47;97952.13;;;17.73;25.52
47374;BME280;33123;50.118;10.272;2023-04-06T07:22:16;97950.97;;;17.79;24.90
47374;BME280;33123;50.118;10.272;2023-04-06T07:24:48;97948.81;;;17.81;25.26
47374;BME280;33123;50.118;10.272;2023-04-06T07:27:19;97957.31;;;17.83;25.25
47374;BME280;33123;50.118;10.272;2023-04-06T07:29:46;97954.59;;;17.88;24.98
47374;BME280;33123;50.118;10.272;2023-04-06T07:32:15;97958.13;;;18.03;25.06
47374;BME280;33123;50.118;10.272;2023-04-06T07:34:46;97955.03;;;17.96;23.98
47374;BME280;33123;50.118;10.272;2023-04-06T07:37:15;97953.50;;;17.89;24.19
47374;BME280;33123;50.118;10.272;2023-04-06T07:39:44;97953.66;;;17.98;25.08
47374;BME280;33123;50.118;10.272;2023-04-06T07:42:14;97955.03;;;17.96;24.09
47374;BME280;33123;50.118;10.272;2023-04-06T07:44:42;97955.03;;;18.14;24.10
47374;BME280;33123;50.118;10.272;2023-04-06T07:47:10;97948.03;;;18.18;25.41
47374;BME280;33123;50.118;10.272;2023-04-06T07:49:41;97950.50;;;18.34;24.02
47374;BME280;33123;50.118;10.272;2023-04-06T07:52:12;97948.63;;;18.34;23.58
47374;BME280;33123;50.118;10.272;2023-04-06T07:54:44;97940.34;;;18.17;23.62
47374;BME280;33123;50.118;10.272;2023-04-06T07:57:19;97944.28;;;18.19;23.30
47374;BME280;33123;50.118;10.272;2023-04-06T07:59:49;97951.63;;;17.90;23.32
47374;BME280;33123;50.118;10.272;2023-04-06T08:02:20;97943.38;;;17.44;23.52
47374;BME280;33123;50.118;10.272;2023-04-06T08:04:51;97944.16;;;17.20;24.85
47374;BME280;33123;50.118;10.272;2023-04-06T08:07:24;97932.84;;;16.41;24.46
47374;BME280;33123;50.118;10.272;2023-04-06T08:09:54;97940.09;;;16.35;24.41
47374;BME280;33123;50.118;10.272;2023-04-06T08:12:23;97941.53;;;15.68;25.33
47374;BME280;33123;50.118;10.272;2023-04-06T08:14:52;97939.94;;;15.62;25.64
47374;BME280;33123;50.118;10.272;2023-04-06T08:17:19;97939.44;;;15.55;25.86
47374;BME280;33123;50.118;10.272;2023-04-06T08:19:47;97939.00;;;15.27;26.45
47374;BME280;33123;50.118;10.272;2023-04-06T08:22:16;97943.22;;;15.44;25.71
47374;BME280;33123;50.118;10.272;2023-04-06T08:24:43;97943.72;;;15.41;25.98
47374;BME280;33123;50.118;10.272;2023-04-06T08:27:12;97949.19;;;15.80;26.37
47374;BME280;33123;50.118;10.272;2023-04-06T08:29:43;97949.88;;;16.01;25.75
47374;BME280;33123;50.118;10.272;2023-04-06T08:32:12;97939.19;;;16.50;25.35
47374;BME280;33123;50.118;10.272;2023-04-06T08:34:38;97947.19;;;16.84;25.25
47374;BME280;33123;50.118;10.272;2023-04-06T08:37:06;97939.06;;;17.00;24.57
47374;BME280;33123;50.118;10.272;2023-04-06T08:39:33;97947.22;;;17.56;24.48
47374;BME280;33123;50.118;10.272;2023-04-06T08:42:02;97943.81;;;17.75;24.21
47374;BME280;33123;50.118;10.272;2023-04-06T08:44:33;97943.63;;;18.09;24.11
47374;BME280;33123;50.118;10.272;2023-04-06T08:47:04;97949.31;;;18.21;23.91
47374;BME280;33123;50.118;10.272;2023-04-06T08:49:35;97958.84;;;18.08;23.80
47374;BME280;33123;50.118;10.272;2023-04-06T08:52:06;97945.72;;;18.50;23.16
47374;BME280;33123;50.118;10.272;2023-04-06T08:54:34;97944.53;;;18.75;22.82
47374;BME280;33123;50.118;10.272;2023-04-06T08:57:05;97941.19;;;18.64;22.37
47374;BME280;33123;50.118;10.272;2023-04-06T08:59:33;97943.75;;;18.74;22.40
47374;BME280;33123;50.118;10.272;2023-04-06T09:02:04;97945.69;;;19.15;21.08
47374;BME280;33123;50.118;10.272;2023-04-06T09:04:32;97946.03;;;19.27;21.80
47374;BME280;33123;50.118;10.272;2023-04-06T09:07:00;97939.28;;;19.43;21.77
47374;BME280;33123;50.118;10.272;2023-04-06T09:09:27;97940.09;;;19.44;20.47
47374;BME280;33123;50.118;10.272;2023-04-06T09:11:55;97941.28;;;19.79;21.23
47374;BME280;33123;50.118;10.272;2023-04-06T09:14:34;97939.47;;;19.47;20.08
47374;BME280;33123;50.118;10.272;2023-04-06T09:17:03;97945.53;;;19.39;20.01
47374;BME280;33123;50.118;10.272;2023-04-06T09:19:30;97937.19;;;19.13;20.99
47374;BME280;33123;50.118;10.272;2023-04-06T09:22:03;97940.06;;;18.70;21.29
47374;BME280;33123;50.118;10.272;2023-04-06T09:24:42;97937.78;;;18.44;21.75
47374;BME280;33123;50.118;10.272;2023-04-06T09:27:09;97938.88;;;18.43;22.08
47374;BME280;33123;50.118;10.272;2023-04-06T09:29:36;97939.22;;;18.37;22.12
47374;BME280;33123;50.118;10.272;2023-04-06T09:32:06;97937.38;;;18.70;22.16
47374;BME280;33123;50.118;10.272;2023-04-06T09:34:33;97923.69;;;18.90;22.03
47374;BME280;33123;50.118;10.272;2023-04-06T09:37:00;97926.59;;;19.08;22.42
47374;BME280;33123;50.118;10.272;2023-04-06T09:39:27;97929.97;;;18.99;21.76
47374;BME280;33123;50.118;10.272;2023-04-06T09:41:54;97926.25;;;18.49;21.76
47374;BME280;33123;50.118;10.272;2023-04-06T09:44:21;97924.47;;;18.58;22.24
47374;BME280;33123;50.118;10.272;2023-04-06T09:46:51;97912.19;;;18.43;21.95
47374;BME280;33123;50.118;10.272;2023-04-06T09:49:21;97922.72;;;18.35;22.67
47374;BME280;33123;50.118;10.272;2023-04-06T09:51:53;97927.00;;;18.17;22.80
47374;BME280;33123;50.118;10.272;2023-04-06T09:54:21;97926.41;;;18.20;22.55
47374;BME280;33123;50.118;10.272;2023-04-06T09:56:53;97917.53;;;18.43;22.02
47374;BME280;33123;50.118;10.272;2023-04-06T09:59:27;97882.47;;;18.31;21.96
47374;BME280;33123;50.118;10.272;2023-04-06T10:01:58;97910.47;;;18.34;22.68
47374;BME280;33123;50.118;10.272;2023-04-06T10:04:35;97909.47;;;18.62;23.75
47374;BME280;33123;50.118;10.272;2023-04-06T10:07:04;97914.47;;;18.69;22.35
47374;BME280;33123;50.118;10.272;2023-04-06T10:09:31;97914.63;;;18.21;22.75
47374;BME280;33123;50.118;10.272;2023-04-06T10:12:03;97911.34;;;18.94;22.35
47374;BME280;33123;50.118;10.272;2023-04-06T10:14:31;97904.00;;;18.86;21.97
47374;BME280;33123;50.118;10.272;2023-04-06T10:17:00;97901.41;;;18.81;22.01
47374;BME280;33123;50.118;10.272;2023-04-06T10:19:34;97910.03;;;18.92;22.52
47374;BME280;33123;50.118;10.272;2023-04-06T10:22:05;97907.91;;;18.42;22.22
47374;BME280;33123;50.118;10.272;2023-04-06T10:24:35;97908.66;;;18.29;22.19
47374;BME280;33123;50.118;10.272;2023-04-06T10:27:03;97905.22;;;18.10;22.53
47374;BME280;33123;50.118;10.272;2023-04-06T10:29:42;97870.25;;;17.92;21.74
47374;BME280;33123;50.118;10.272;2023-04-06T10:32:09;97893.78;;;18.42;22.40
47374;BME280;33123;50.118;10.272;2023-04-06T10:34:38;97894.88;;;18.73;22.29
47374;BME280;33123;50.118;10.272;2023-04-06T10:37:12;97899.97;;;18.89;22.17
47374;BME280;33123;50.118;10.272;2023-04-06T10:39:46;97896.53;;;19.43;21.33
47374;BME280;33123;50.118;10.272;2023-04-06T10:42:14;97901.84;;;19.71;21.04
47374;BME280;33123;50.118;10.272;2023-04-06T10:44:43;97896.41;;;19.48;20.82
47374;BME280;33123;50.118;10.272;2023-04-06T10:47:16;97892.44;;;20.32;20.61
47374;BME280;33123;50.118;10.272;2023-04-06T10:49:45;97887.66;;;20.96;21.38
47374;BME280;33123;50.118;10.272;2023-04-06T10:52:12;97880.78;;;20.81;19.48
47374;BME280;33123;50.118;10.272;2023-04-06T10:54:41;97892.41;;;20.99;19.48
47374;BME280;33123;50.118;10.272;2023-04-06T10:57:10;97887.44;;;20.84;19.53
47374;BME280;33123;50.118;10.272;2023-04-06T10:59:42;97891.59;;;20.45;19.58
47374;BME280;33123;50.118;10.272;2023-04-06T11:02:08;97882.16;;;20.25;20.21
47374;BME280;33123;50.118;10.272;2023-04-06T11:04:35;97880.28;;;20.26;19.93
47374;BME280;33123;50.118;10.272;2023-04-06T11:07:03;97880.53;;;20.16;20.32
47374;BME280;33123;50.118;10.272;2023-04-06T11:09:30;97882.84;;;19.72;20.54
47374;BME280;33123;50.118;10.272;2023-04-06T11:11:58;97853.84;;;19.66;20.68
47374;BME280;33123;50.118;10.272;2023-04-06T11:14:26;97873.25;;;19.44;20.46
47374;BME280;33123;50.118;10.272;2023-04-06T11:16:52;97872.00;;;19.91;21.82
47374;BME280;33123;50.118;10.272;2023-04-06T11:19:20;97872.34;;;19.98;20.65
47374;BME280;33123;50.118;10.272;2023-04-06T11:21:48;97879.53;;;19.89;20.90
47374;BME280;33123;50.118;10.272;2023-04-06T11:24:18;97864.84;;;20.23;20.60
47374;BME280;33123;50.118;10.272;2023-04-06T11:26:46;97873.31;;;19.80;21.30
47374;BME280;33123;50.118;10.272;2023-04-06T11:29:16;97878.88;;;19.70;20.31
47374;BME280;33123;50.118;10.272;2023-04-06T11:31:45;97874.72;;;19.64;20.07
47374;BME280;33123;50.118;10.272;2023-04-06T11:34:15;97869.50;;;19.04;21.01
47374;BME280;33123;50.118;10.272;2023-04-06T11:36:43;97868.09;;;19.47;20.75
47374;BME280;33123;50.118;10.272;2023-04-06T11:39:11;97866.41;;;19.65;21.18
47374;BME280;33123;50.118;10.272;2023-04-06T11:41:40;97855.50;;;19.98;22.07
47374;BME280;33123;50.118;10.272;2023-04-06T11:44:07;97856.00;;;20.45;22.10
47374;BME280;33123;50.118;10.272;2023-04-06T11:46:35;97863.72;;;20.69;20.36
47374;BME280;33123;50.118;10.272;2023-04-06T11:49:02;97856.59;;;20.64;20.72
47374;BME280;33123;50.118;10.272;2023-04-06T11:51:29;97860.16;;;20.06;20.39
47374;BME280;33123;50.118;10.272;2023-04-06T11:53:56;97848.78;;;20.23;20.86
47374;BME280;33123;50.118;10.272;2023-04-06T11:56:26;97848.34;;;20.07;21.14
47374;BME280;33123;50.118;10.272;2023-04-06T11:58:57;97849.28;;;19.52;21.77
47374;BME280;33123;50.118;10.272;2023-04-06T12:01:25;97839.19;;;19.99;21.99
47374;BME280;33123;50.118;10.272;2023-04-06T12:03:53;97849.88;;;19.99;21.29
47374;BME280;33123;50.118;10.272;2023-04-06T12:06:19;97848.81;;;19.87;21.10
47374;BME280;33123;50.118;10.272;2023-04-06T12:08:46;97843.34;;;20.14;22.83
47374;BME280;33123;50.118;10.272;2023-04-06T12:11:13;97849.56;;;20.23;22.03
47374;BME280;33123;50.118;10.272;2023-04-06T12:13:40;97838.19;;;19.95;22.00
47374;BME280;33123;50.118;10.272;2023-04-06T12:16:08;97846.91;;;19.37;22.34
47374;BME280;33123;50.118;10.272;2023-04-06T12:18:35;97842.56;;;19.55;22.78
47374;BME280;33123;50.118;10.272;2023-04-06T12:21:02;97832.19;;;19.40;24.11
47374;BME280;33123;50.118;10.272;2023-04-06T12:23:31;97836.44;;;18.86;22.26
47374;BME280;33123;50.118;10.272;2023-04-06T12:25:59;97833.00;;;19.13;23.04
47374;BME280;33123;50.118;10.272;2023-04-06T12:28:27;97837.44;;;19.04;22.52
47374;BME280;33123;50.118;10.272;2023-04-06T12:30:55;97818.97;;;18.93;23.14
47374;BME280;33123;50.118;10.272;2023-04-06T12:33:25;97823.59;;;18.09;23.16
47374;BME280;33123;50.118;10.272;2023-04-06T12:35:54;97824.38;;;18.28;23.36
47374;BME280;33123;50.118;10.272;2023-04-06T12:38:23;97813.81;;;18.04;24.47
47374;BME280;33123;50.118;10.272;2023-04-06T12:40:51;97819.03;;;17.96;24.68
47374;BME280;33123;50.118;10.272;2023-04-06T12:43:18;97815.31;;;17.78;23.97
47374;BME280;33123;50.118;10.272;2023-04-06T12:45:46;97804.44;;;18.07;24.06
47374;BME280;33123;50.118;10.272;2023-04-06T12:48:15;97811.66;;;17.68;24.41
47374;BME280;33123;50.118;10.272;2023-04-06T12:50:43;97803.09;;;17.90;23.88
47374;BME280;33123;50.118;10.272;2023-04-06T12:53:10;97793.84;;;18.02;23.48
47374;BME280;33123;50.118;10.272;2023-04-06T12:55:37;97806.34;;;18.20;24.89
47374;BME280;33123;50.118;10.272;2023-04-06T12:58:03;97808.47;;;18.04;24.15